sensor_id;sensor_type;location;lat;lon;timestamp;temperature;humidity
19330;DHT22;9799;48.214;16.388;2023-05-16T00:01:33;15.30;99.90
19330;DHT22;9799;48.214;16.388;2023-05-16T00:04:54;15.30;99.90
19330;DHT22;9799;48.214;16.388;2023-05-16T00:08:16;15.30;99.90
19330;DHT22;9799;48.214;16.388;2023-05-16T00:11:37;15.30;99.90
19330;DHT22;9799;48.214;16.388;2023-05-16T00:15:00;15.40;99.90
19330;DHT22;9799;48.214;16.388;2023-05-16T00:18:21;15.30;99.90
19330;DHT22;9799;48.214;16.388;2023-05-16T00:21:42;15.30;99.90
19330;DHT22;9799;48.214;16.388;2023-05-16T00:25:04;15.30;99.90
19330;DHT22;9799;48.214;16.388;2023-05-16T00:28:25;15.30;99.90
19330;DHT22;9799;48.214;16.388;2023-05-16T00:31:48;15.20;99.90
19330;DHT22;9799;48.214;16.388;2023-05-16T00:35:09;15.30;99.90
19330;DHT22;9799;48.214;16.388;2023-05-16T00:38:31;15.20;99.90
19330;DHT22;9799;48.214;16.388;2023-05-16T00:41:52;15.20;99.90
19330;DHT22;9799;48.214;16.388;2023-05-16T00:45:13;15.10;99.90
19330;DHT22;9799;48.214;16.388;2023-05-16T00:48:36;15.10;99.90
19330;DHT22;9799;48.214;16.388;2023-05-16T00:51:57;15.20;99.90
19330;DHT22;9799;48.214;16.388;2023-05-16T00:55:19;15.10;99.90
19330;DHT22;9799;48.214;16.388;2023-05-16T00:58:40;15.20;99.90
19330;DHT22;9799;48.214;16.388;2023-05-16T01:02:02;15.20;99.90
19330;DHT22;9799;48.214;16.388;2023-05-16T01:05:24;15.20;99.90
19330;DHT22;9799;48.214;16.388;2023-05-16T01:08:45;15.20;99.90
19330;DHT22;9799;48.214;16.388;2023-05-16T01:12:12;15.20;99.90
19330;DHT22;9799;48.214;16.388;2023-05-16T01:15:42;15.20;99.90
19330;DHT22;9799;48.214;16.388;2023-05-16T01:19:12;15.20;99.90
19330;DHT22;9799;48.214;16.388;2023-05-16T01:22:47;15.20;99.90
19330;DHT22;9799;48.214;16.388;2023-05-16T01:26:14;15.30;99.90
19330;DHT22;9799;48.214;16.388;2023-05-16T01:29:36;15.20;99.90
19330;DHT22;9799;48.214;16.388;2023-05-16T01:32:57;15.20;99.90
19330;DHT22;9799;48.214;16.388;2023-05-16T01:36:23;15.20;99.90
19330;DHT22;9799;48.214;16.388;2023-05-16T01:39:51;15.20;99.90
19330;DHT22;9799;48.214;16.388;2023-05-16T01:43:19;15.10;99.90
19330;DHT22;9799;48.214;16.388;2023-05-16T01:46:45;15.10;99.90
19330;DHT22;9799;48.214;16.388;2023-05-16T01:50:09;15.10;99.90
19330;DHT22;9799;48.214;16.388;2023-05-16T01:53:36;15.00;99.90
19330;DHT22;9799;48.214;16.388;2023-05-16T01:56:59;14.90;99.90
19330;DHT22;9799;48.214;16.388;2023-05-16T02:00:25;15.00;99.90
19330;DHT22;9799;48.214;16.388;2023-05-16T02:03:46;15.00;99.90
19330;DHT22;9799;48.214;16.388;2023-05-16T02:07:07;14.90;99.90
19330;DHT22;9799;48.214;16.388;2023-05-16T02:10:28;14.90;99.90
19330;DHT22;9799;48.214;16.388;2023-05-16T02:13:50;14.90;99.90
19330;DHT22;9799;48.214;16.388;2023-05-16T02:17:12;14.90;99.90
19330;DHT22;9799;48.214;16.388;2023-05-16T02:20:34;14.90;99.90
19330;DHT22;9799;48.214;16.388;2023-05-16T02:23:55;14.90;99.90
19330;DHT22;9799;48.214;16.388;2023-05-16T02:27:16;15.00;99.90
19330;DHT22;9799;48.214;16.388;2023-05-16T02:30:38;15.00;99.90
19330;DHT22;9799;48.214;16.388;2023-05-16T02:34:01;15.10;99.90
19330;DHT22;9799;48.214;16.388;2023-05-16T02:37:22;15.00;99.90
19330;DHT22;9799;48.214;16.388;2023-05-16T02:40:43;15.00;99.90
19330;DHT22;9799;48.214;16.388;2023-05-16T02:44:04;15.00;99.90
19330;DHT22;9799;48.214;16.388;2023-05-16T02:47:26;15.00;99.90
19330;DHT22;9799;48.214;16.388;2023-05-16T02:50:48;15.00;99.90
19330;DHT22;9799;48.214;16.388;2023-05-16T02:54:09;15.00;99.90
19330;DHT22;9799;48.214;16.388;2023-05-16T02:57:30;15.00;99.90
19330;DHT22;9799;48.214;16.388;2023-05-16T03:00:52;14.90;99.90
19330;DHT22;9799;48.214;16.388;2023-05-16T03:04:13;14.90;99.90
19330;DHT22;9799;48.214;16.388;2023-05-16T03:07:36;14.90;99.90
19330;DHT22;9799;48.214;16.388;2023-05-16T03:10:57;14.90;99.90
19330;DHT22;9799;48.214;16.388;2023-05-16T03:14:19;14.90;99.90
19330;DHT22;9799;48.214;16.388;2023-05-16T03:17:40;14.80;99.90
19330;DHT22;9799;48.214;16.388;2023-05-16T03:21:01;14.90;99.90
19330;DHT22;9799;48.214;16.388;2023-05-16T03:24:24;14.80;99.90
19330;DHT22;9799;48.214;16.388;2023-05-16T03:27:45;14.80;99.90
19330;DHT22;9799;48.214;16.388;2023-05-16T03:31:06;14.80;99.90
19330;DHT22;9799;48.214;16.388;2023-05-16T03:34:27;14.80;99.90
19330;DHT22;9799;48.214;16.388;2023-05-16T03:37:48;14.90;99.90
19330;DHT22;9799;48.214;16.388;2023-05-16T03:41:11;14.80;99.90
19330;DHT22;9799;48.214;16.388;2023-05-16T03:44:32;14.80;99.90
19330;DHT22;9799;48.214;16.388;2023-05-16T03:47:53;14.80;99.90
19330;DHT22;9799;48.214;16.388;2023-05-16T03:51:14;14.80;99.90
19330;DHT22;9799;48.214;16.388;2023-05-16T03:54:35;14.80;99.90
19330;DHT22;9799;48.214;16.388;2023-05-16T03:57:58;14.90;99.90
19330;DHT22;9799;48.214;16.388;2023-05-16T04:01:19;14.90;99.90
19330;DHT22;9799;48.214;16.388;2023-05-16T04:04:41;14.80;99.90
19330;DHT22;9799;48.214;16.388;2023-05-16T04:08:02;14.90;99.90
19330;DHT22;9799;48.214;16.388;2023-05-16T04:11:23;14.90;99.90
19330;DHT22;9799;48.214;16.388;2023-05-16T04:14:47;14.90;99.90
19330;DHT22;9799;48.214;16.388;2023-05-16T04:18:09;15.00;99.90
19330;DHT22;9799;48.214;16.388;2023-05-16T04:21:30;15.00;99.90
19330;DHT22;9799;48.214;16.388;2023-05-16T04:24:51;15.00;99.90
19330;DHT22;9799;48.214;16.388;2023-05-16T04:28:12;15.00;99.90
19330;DHT22;9799;48.214;16.388;2023-05-16T04:31:35;15.00;99.90
19330;DHT22;9799;48.214;16.388;2023-05-16T04:34:56;15.00;99.90
19330;DHT22;9799;48.214;16.388;2023-05-16T04:38:17;15.10;99.90
19330;DHT22;9799;48.214;16.388;2023-05-16T04:41:38;15.10;99.90
19330;DHT22;9799;48.214;16.388;2023-05-16T04:45:00;15.10;99.90
19330;DHT22;9799;48.214;16.388;2023-05-16T04:48:23;15.10;99.90
19330;DHT22;9799;48.214;16.388;2023-05-16T04:51:45;15.10;99.90
19330;DHT22;9799;48.214;16.388;2023-05-16T04:55:07;15.20;99.90
19330;DHT22;9799;48.214;16.388;2023-05-16T04:58:29;15.20;99.90
19330;DHT22;9799;48.214;16.388;2023-05-16T05:01:50;15.10;99.90
19330;DHT22;9799;48.214;16.388;2023-05-16T05:05:13;15.20;99.90
19330;DHT22;9799;48.214;16.388;2023-05-16T05:08:34;15.10;99.90
19330;DHT22;9799;48.214;16.388;2023-05-16T05:11:55;15.30;99.90
19330;DHT22;9799;48.214;16.388;2023-05-16T05:15:16;15.40;99.90
19330;DHT22;9799;48.214;16.388;2023-05-16T05:18:38;15.40;99.90
19330;DHT22;9799;48.214;16.388;2023-05-16T05:22:00;15.40;99.90
19330;DHT22;9799;48.214;16.388;2023-05-16T05:25:21;15.40;99.90
19330;DHT22;9799;48.214;16.388;2023-05-16T05:28:42;15.40;99.90
19330;DHT22;9799;48.214;16.388;2023-05-16T05:32:04;15.40;99.90
19330;DHT22;9799;48.214;16.388;2023-05-16T05:35:25;15.50;99.90
19330;DHT22;9799;48.214;16.388;2023-05-16T05:38:48;15.50;99.90
19330;DHT22;9799;48.214;16.388;2023-05-16T05:42:09;15.50;99.90
19330;DHT22;9799;48.214;16.388;2023-05-16T05:45:30;15.60;99.90
19330;DHT22;9799;48.214;16.388;2023-05-16T05:48:52;15.60;99.90
19330;DHT22;9799;48.214;16.388;2023-05-16T05:52:13;15.60;99.90
19330;DHT22;9799;48.214;16.388;2023-05-16T05:55:36;15.60;99.90
19330;DHT22;9799;48.214;16.388;2023-05-16T05:58:57;15.60;99.90
19330;DHT22;9799;48.214;16.388;2023-05-16T06:02:19;15.50;99.90
19330;DHT22;9799;48.214;16.388;2023-05-16T06:05:40;15.60;99.90
19330;DHT22;9799;48.214;16.388;2023-05-16T06:09:01;15.70;99.90
19330;DHT22;9799;48.214;16.388;2023-05-16T06:12:24;15.70;99.90
19330;DHT22;9799;48.214;16.388;2023-05-16T06:15:49;15.70;99.90
19330;DHT22;9799;48.214;16.388;2023-05-16T06:19:10;15.60;99.90
19330;DHT22;9799;48.214;16.388;2023-05-16T06:22:34;15.70;99.90
19330;DHT22;9799;48.214;16.388;2023-05-16T06:25:55;15.60;99.90
19330;DHT22;9799;48.214;16.388;2023-05-16T06:29:18;15.60;99.90
19330;DHT22;9799;48.214;16.388;2023-05-16T06:32:39;15.60;99.90
19330;DHT22;9799;48.214;16.388;2023-05-16T06:36:01;15.60;99.90
19330;DHT22;9799;48.214;16.388;2023-05-16T06:39:22;15.60;99.90
19330;DHT22;9799;48.214;16.388;2023-05-16T06:42:43;15.50;99.90
19330;DHT22;9799;48.214;16.388;2023-05-16T06:46:05;15.50;99.90
19330;DHT22;9799;48.214;16.388;2023-05-16T06:49:27;15.50;99.90
19330;DHT22;9799;48.214;16.388;2023-05-16T06:52:48;15.60;99.90
19330;DHT22;9799;48.214;16.388;2023-05-16T06:56:09;15.70;99.90
19330;DHT22;9799;48.214;16.388;2023-05-16T06:59:30;15.80;99.90
19330;DHT22;9799;48.214;16.388;2023-05-16T07:02:53;15.80;99.90
19330;DHT22;9799;48.214;16.388;2023-05-16T07:06:14;15.90;99.90
19330;DHT22;9799;48.214;16.388;2023-05-16T07:09:35;15.90;99.90
19330;DHT22;9799;48.214;16.388;2023-05-16T07:12:56;15.90;99.90
19330;DHT22;9799;48.214;16.388;2023-05-16T07:16:20;16.00;99.90
19330;DHT22;9799;48.214;16.388;2023-05-16T07:19:42;16.00;99.90
19330;DHT22;9799;48.214;16.388;2023-05-16T07:23:03;16.00;99.90
19330;DHT22;9799;48.214;16.388;2023-05-16T07:26:25;15.90;99.90
19330;DHT22;9799;48.214;16.388;2023-05-16T07:29:46;15.90;99.90
19330;DHT22;9799;48.214;16.388;2023-05-16T07:33:08;16.00;99.90
19330;DHT22;9799;48.214;16.388;2023-05-16T07:36:30;16.00;99.90
19330;DHT22;9799;48.214;16.388;2023-05-16T07:39:52;15.90;99.90
19330;DHT22;9799;48.214;16.388;2023-05-16T07:43:13;15.70;99.90
19330;DHT22;9799;48.214;16.388;2023-05-16T07:46:34;15.70;99.90
19330;DHT22;9799;48.214;16.388;2023-05-16T07:49:55;15.70;99.90
19330;DHT22;9799;48.214;16.388;2023-05-16T07:53:18;15.70;99.90
19330;DHT22;9799;48.214;16.388;2023-05-16T07:56:39;15.70;99.90
19330;DHT22;9799;48.214;16.388;2023-05-16T08:00:01;15.60;99.90
19330;DHT22;9799;48.214;16.388;2023-05-16T08:03:23;15.60;99.90
19330;DHT22;9799;48.214;16.388;2023-05-16T08:06:44;15.60;99.90
19330;DHT22;9799;48.214;16.388;2023-05-16T08:10:08;15.50;99.90
19330;DHT22;9799;48.214;16.388;2023-05-16T08:13:29;15.60;99.90
19330;DHT22;9799;48.214;16.388;2023-05-16T08:16:50;15.50;99.90
19330;DHT22;9799;48.214;16.388;2023-05-16T08:20:12;15.40;99.90
19330;DHT22;9799;48.214;16.388;2023-05-16T08:23:33;15.50;99.90
19330;DHT22;9799;48.214;16.388;2023-05-16T08:26:56;15.50;99.90
19330;DHT22;9799;48.214;16.388;2023-05-16T08:30:17;15.40;99.90
19330;DHT22;9799;48.214;16.388;2023-05-16T08:33:39;15.30;99.90
19330;DHT22;9799;48.214;16.388;2023-05-16T08:37:00;15.20;99.90
19330;DHT22;9799;48.214;16.388;2023-05-16T08:40:24;15.30;99.90
19330;DHT22;9799;48.214;16.388;2023-05-16T08:43:47;15.40;99.90
19330;DHT22;9799;48.214;16.388;2023-05-16T08:47:11;15.20;99.90
19330;DHT22;9799;48.214;16.388;2023-05-16T08:50:34;15.20;99.90
19330;DHT22;9799;48.214;16.388;2023-05-16T08:53:59;15.10;99.90
19330;DHT22;9799;48.214;16.388;2023-05-16T08:57:22;15.00;99.90
19330;DHT22;9799;48.214;16.388;2023-05-16T09:00:46;15.10;99.90
19330;DHT22;9799;48.214;16.388;2023-05-16T09:04:08;15.00;99.90
19330;DHT22;9799;48.214;16.388;2023-05-16T09:07:30;14.80;99.90
19330;DHT22;9799;48.214;16.388;2023-05-16T09:10:51;14.80;99.90
19330;DHT22;9799;48.214;16.388;2023-05-16T09:14:12;14.80;99.90
19330;DHT22;9799;48.214;16.388;2023-05-16T09:17:36;14.80;99.90
19330;DHT22;9799;48.214;16.388;2023-05-16T09:20:59;14.80;99.90
19330;DHT22;9799;48.214;16.388;2023-05-16T09:24:25;14.70;99.90
19330;DHT22;9799;48.214;16.388;2023-05-16T09:27:46;14.70;99.90
19330;DHT22;9799;48.214;16.388;2023-05-16T09:31:19;14.80;99.90
19330;DHT22;9799;48.214;16.388;2023-05-16T09:34:44;14.80;99.90
19330;DHT22;9799;48.214;16.388;2023-05-16T09:38:12;14.70;99.90
19330;DHT22;9799;48.214;16.388;2023-05-16T09:41:34;14.60;99.90
19330;DHT22;9799;48.214;16.388;2023-05-16T09:44:56;14.70;99.90
19330;DHT22;9799;48.214;16.388;2023-05-16T09:48:18;14.80;99.90
19330;DHT22;9799;48.214;16.388;2023-05-16T09:51:41;14.80;99.90
19330;DHT22;9799;48.214;16.388;2023-05-16T09:55:05;14.80;99.90
19330;DHT22;9799;48.214;16.388;2023-05-16T09:58:28;14.80;99.90
19330;DHT22;9799;48.214;16.388;2023-05-16T10:01:50;14.70;99.90
19330;DHT22;9799;48.214;16.388;2023-05-16T10:05:12;14.60;99.90
19330;DHT22;9799;48.214;16.388;2023-05-16T10:08:37;14.70;99.90
19330;DHT22;9799;48.214;16.388;2023-05-16T10:12:03;14.70;99.90
19330;DHT22;9799;48.214;16.388;2023-05-16T10:15:26;14.60;99.90
19330;DHT22;9799;48.214;16.388;2023-05-16T10:18:48;14.60;99.90
19330;DHT22;9799;48.214;16.388;2023-05-16T10:22:11;14.50;99.90
19330;DHT22;9799;48.214;16.388;2023-05-16T10:25:39;14.60;99.90
19330;DHT22;9799;48.214;16.388;2023-05-16T10:29:02;14.60;99.90
19330;DHT22;9799;48.214;16.388;2023-05-16T10:32:25;14.70;99.90
19330;DHT22;9799;48.214;16.388;2023-05-16T10:35:48;14.70;99.90
19330;DHT22;9799;48.214;16.388;2023-05-16T10:39:10;14.60;99.90
19330;DHT22;9799;48.214;16.388;2023-05-16T10:42:33;14.60;99.90
19330;DHT22;9799;48.214;16.388;2023-05-16T10:45:56;14.50;99.90
19330;DHT22;9799;48.214;16.388;2023-05-16T10:49:22;14.60;99.90
19330;DHT22;9799;48.214;16.388;2023-05-16T10:52:43;14.80;99.90
19330;DHT22;9799;48.214;16.388;2023-05-16T10:56:09;14.80;99.90
19330;DHT22;9799;48.214;16.388;2023-05-16T10:59:41;14.70;99.90
19330;DHT22;9799;48.214;16.388;2023-05-16T11:03:04;14.70;99.90
19330;DHT22;9799;48.214;16.388;2023-05-16T11:06:27;14.70;99.90
19330;DHT22;9799;48.214;16.388;2023-05-16T11:10:06;14.70;99.90
19330;DHT22;9799;48.214;16.388;2023-05-16T11:13:27;14.70;99.90
19330;DHT22;9799;48.214;16.388;2023-05-16T11:16:51;14.70;99.90
19330;DHT22;9799;48.214;16.388;2023-05-16T11:20:24;14.70;99.90
19330;DHT22;9799;48.214;16.388;2023-05-16T11:24:29;14.70;99.90
19330;DHT22;9799;48.214;16.388;2023-05-16T11:27:50;14.70;99.90
19330;DHT22;9799;48.214;16.388;2023-05-16T11:31:11;14.80;99.90
19330;DHT22;9799;48.214;16.388;2023-05-16T11:34:37;14.80;99.90
19330;DHT22;9799;48.214;16.388;2023-05-16T11:37:59;14.80;99.90
19330;DHT22;9799;48.214;16.388;2023-05-16T11:41:21;14.80;99.90
19330;DHT22;9799;48.214;16.388;2023-05-16T11:44:43;14.80;99.90
19330;DHT22;9799;48.214;16.388;2023-05-16T11:48:05;14.80;99.90
19330;DHT22;9799;48.214;16.388;2023-05-16T11:51:28;14.70;99.90
19330;DHT22;9799;48.214;16.388;2023-05-16T11:54:50;14.70;99.90
19330;DHT22;9799;48.214;16.388;2023-05-16T11:58:11;14.70;99.90
19330;DHT22;9799;48.214;16.388;2023-05-16T12:01:33;14.70;99.90
19330;DHT22;9799;48.214;16.388;2023-05-16T12:04:56;14.80;99.90
19330;DHT22;9799;48.214;16.388;2023-05-16T12:08:18;14.80;99.90
19330;DHT22;9799;48.214;16.388;2023-05-16T12:11:41;14.90;99.90
19330;DHT22;9799;48.214;16.388;2023-05-16T12:15:04;14.90;99.90
19330;DHT22;9799;48.214;16.388;2023-05-16T12:18:26;14.90;99.90
19330;DHT22;9799;48.214;16.388;2023-05-16T12:21:50;14.80;99.90
19330;DHT22;9799;48.214;16.388;2023-05-16T12:25:24;14.60;99.90
19330;DHT22;9799;48.214;16.388;2023-05-16T12:28:52;14.60;99.90
19330;DHT22;9799;48.214;16.388;2023-05-16T12:32:17;14.60;99.90
19330;DHT22;9799;48.214;16.388;2023-05-16T12:35:40;14.60;99.90
19330;DHT22;9799;48.214;16.388;2023-05-16T12:39:02;14.70;99.90
19330;DHT22;9799;48.214;16.388;2023-05-16T12:42:25;14.80;99.90
19330;DHT22;9799;48.214;16.388;2023-05-16T12:45:49;14.80;99.90
19330;DHT22;9799;48.214;16.388;2023-05-16T12:49:11;14.80;99.90
19330;DHT22;9799;48.214;16.388;2023-05-16T12:52:33;14.80;99.90
19330;DHT22;9799;48.214;16.388;2023-05-16T12:55:54;14.80;99.90
19330;DHT22;9799;48.214;16.388;2023-05-16T12:59:16;14.90;99.90
19330;DHT22;9799;48.214;16.388;2023-05-16T13:02:39;14.90;99.90
19330;DHT22;9799;48.214;16.388;2023-05-16T13:06:00;14.80;99.90
19330;DHT22;9799;48.214;16.388;2023-05-16T13:09:22;14.80;99.90
19330;DHT22;9799;48.214;16.388;2023-05-16T13:12:44;14.70;99.90
19330;DHT22;9799;48.214;16.388;2023-05-16T13:16:07;14.90;99.90
19330;DHT22;9799;48.214;16.388;2023-05-16T13:19:29;14.80;99.90
19330;DHT22;9799;48.214;16.388;2023-05-16T13:22:51;14.80;99.90
19330;DHT22;9799;48.214;16.388;2023-05-16T13:26:12;14.70;99.90
19330;DHT22;9799;48.214;16.388;2023-05-16T13:29:33;14.70;99.90
19330;DHT22;9799;48.214;16.388;2023-05-16T13:32:56;14.80;99.90
19330;DHT22;9799;48.214;16.388;2023-05-16T13:36:17;14.90;99.90
19330;DHT22;9799;48.214;16.388;2023-05-16T13:39:39;14.80;99.90
19330;DHT22;9799;48.214;16.388;2023-05-16T13:43:00;14.70;99.90
19330;DHT22;9799;48.214;16.388;2023-05-16T13:46:21;14.70;99.90
19330;DHT22;9799;48.214;16.388;2023-05-16T13:49:44;14.80;99.90
19330;DHT22;9799;48.214;16.388;2023-05-16T13:53:06;14.80;99.90
19330;DHT22;9799;48.214;16.388;2023-05-16T13:56:27;14.80;99.90
19330;DHT22;9799;48.214;16.388;2023-05-16T13:59:48;14.80;99.90
19330;DHT22;9799;48.214;16.388;2023-05-16T14:03:10;14.80;99.90
19330;DHT22;9799;48.214;16.388;2023-05-16T14:06:32;14.90;99.90
19330;DHT22;9799;48.214;16.388;2023-05-16T14:09:53;14.70;99.90
19330;DHT22;9799;48.214;16.388;2023-05-16T14:13:15;14.80;99.90
19330;DHT22;9799;48.214;16.388;2023-05-16T14:16:36;14.80;99.90
19330;DHT22;9799;48.214;16.388;2023-05-16T14:19:57;14.80;99.90
19330;DHT22;9799;48.214;16.388;2023-05-16T14:23:20;14.80;99.90
19330;DHT22;9799;48.214;16.388;2023-05-16T14:26:41;14.80;99.90
19330;DHT22;9799;48.214;16.388;2023-05-16T14:30:03;14.90;99.90
19330;DHT22;9799;48.214;16.388;2023-05-16T14:33:28;14.90;99.90
19330;DHT22;9799;48.214;16.388;2023-05-16T14:36:49;14.90;99.90
19330;DHT22;9799;48.214;16.388;2023-05-16T14:40:12;14.90;99.90
19330;DHT22;9799;48.214;16.388;2023-05-16T14:43:34;14.90;99.90
19330;DHT22;9799;48.214;16.388;2023-05-16T14:46:56;14.80;99.90
19330;DHT22;9799;48.214;16.388;2023-05-16T14:50:18;14.80;99.90
19330;DHT22;9799;48.214;16.388;2023-05-16T14:53:39;14.80;99.90
19330;DHT22;9799;48.214;16.388;2023-05-16T14:57:02;14.90;99.90
19330;DHT22;9799;48.214;16.388;2023-05-16T15:00:24;14.90;99.90
19330;DHT22;9799;48.214;16.388;2023-05-16T15:03:45;14.90;99.90
19330;DHT22;9799;48.214;16.388;2023-05-16T15:07:07;14.90;99.90
19330;DHT22;9799;48.214;16.388;2023-05-16T15:10:28;14.80;99.90
19330;DHT22;9799;48.214;16.388;2023-05-16T15:13:51;14.80;99.90
19330;DHT22;9799;48.214;16.388;2023-05-16T15:17:13;14.80;99.90
19330;DHT22;9799;48.214;16.388;2023-05-16T15:20:34;14.90;99.90
19330;DHT22;9799;48.214;16.388;2023-05-16T15:23:55;14.90;99.90
19330;DHT22;9799;48.214;16.388;2023-05-16T15:27:16;14.90;99.90
19330;DHT22;9799;48.214;16.388;2023-05-16T15:30:39;14.90;99.90
19330;DHT22;9799;48.214;16.388;2023-05-16T15:34:00;14.80;99.90
19330;DHT22;9799;48.214;16.388;2023-05-16T15:37:21;14.80;99.90
19330;DHT22;9799;48.214;16.388;2023-05-16T15:40:42;14.70;99.90
19330;DHT22;9799;48.214;16.388;2023-05-16T15:44:04;14.70;99.90
19330;DHT22;9799;48.214;16.388;2023-05-16T15:47:27;14.70;99.90
19330;DHT22;9799;48.214;16.388;2023-05-16T15:50:48;14.70;99.90
19330;DHT22;9799;48.214;16.388;2023-05-16T15:54:09;14.70;99.90
19330;DHT22;9799;48.214;16.388;2023-05-16T15:57:30;14.70;99.90
19330;DHT22;9799;48.214;16.388;2023-05-16T16:00:52;14.70;99.90
19330;DHT22;9799;48.214;16.388;2023-05-16T16:04:16;14.70;99.90
19330;DHT22;9799;48.214;16.388;2023-05-16T16:07:38;14.70;99.90
19330;DHT22;9799;48.214;16.388;2023-05-16T16:10:59;14.70;99.90
19330;DHT22;9799;48.214;16.388;2023-05-16T16:14:21;14.70;99.90
19330;DHT22;9799;48.214;16.388;2023-05-16T16:17:42;14.70;99.90
19330;DHT22;9799;48.214;16.388;2023-05-16T16:21:05;14.70;99.90
19330;DHT22;9799;48.214;16.388;2023-05-16T16:24:26;14.70;99.90
19330;DHT22;9799;48.214;16.388;2023-05-16T16:27:47;14.70;99.90
19330;DHT22;9799;48.214;16.388;2023-05-16T16:31:08;14.70;99.90
19330;DHT22;9799;48.214;16.388;2023-05-16T16:34:30;14.70;99.90
19330;DHT22;9799;48.214;16.388;2023-05-16T16:37:53;14.70;99.90
19330;DHT22;9799;48.214;16.388;2023-05-16T16:41:14;14.70;99.90
19330;DHT22;9799;48.214;16.388;2023-05-16T16:44:36;14.70;99.90
19330;DHT22;9799;48.214;16.388;2023-05-16T16:47:57;14.70;99.90
19330;DHT22;9799;48.214;16.388;2023-05-16T16:51:18;14.80;99.90
19330;DHT22;9799;48.214;16.388;2023-05-16T16:54:41;14.70;99.90
19330;DHT22;9799;48.214;16.388;2023-05-16T16:58:02;14.70;99.90
19330;DHT22;9799;48.214;16.388;2023-05-16T17:01:23;14.60;99.90
19330;DHT22;9799;48.214;16.388;2023-05-16T17:04:44;14.70;99.90
19330;DHT22;9799;48.214;16.388;2023-05-16T17:08:05;14.70;99.90
19330;DHT22;9799;48.214;16.388;2023-05-16T17:11:28;14.70;99.90
19330;DHT22;9799;48.214;16.388;2023-05-16T17:14:50;14.70;99.90
19330;DHT22;9799;48.214;16.388;2023-05-16T17:18:12;14.70;99.90
19330;DHT22;9799;48.214;16.388;2023-05-16T17:21:33;14.70;99.90
19330;DHT22;9799;48.214;16.388;2023-05-16T17:24:56;14.70;99.90
19330;DHT22;9799;48.214;16.388;2023-05-16T17:28:18;14.70;99.90
19330;DHT22;9799;48.214;16.388;2023-05-16T17:31:40;14.60;99.90
19330;DHT22;9799;48.214;16.388;2023-05-16T17:35:01;14.60;99.90
19330;DHT22;9799;48.214;16.388;2023-05-16T17:38:23;14.50;99.90
19330;DHT22;9799;48.214;16.388;2023-05-16T17:41:44;14.50;99.90
19330;DHT22;9799;48.214;16.388;2023-05-16T17:45:10;14.50;99.90
19330;DHT22;9799;48.214;16.388;2023-05-16T17:48:32;14.50;99.90
19330;DHT22;9799;48.214;16.388;2023-05-16T17:51:54;14.50;99.90
19330;DHT22;9799;48.214;16.388;2023-05-16T17:55:16;14.40;99.90
19330;DHT22;9799;48.214;16.388;2023-05-16T17:58:39;14.30;99.90
19330;DHT22;9799;48.214;16.388;2023-05-16T18:02:01;14.30;99.90
19330;DHT22;9799;48.214;16.388;2023-05-16T18:05:23;14.30;99.90
19330;DHT22;9799;48.214;16.388;2023-05-16T18:08:45;14.20;99.90
19330;DHT22;9799;48.214;16.388;2023-05-16T18:12:07;14.10;99.90
19330;DHT22;9799;48.214;16.388;2023-05-16T18:15:29;14.10;99.90
19330;DHT22;9799;48.214;16.388;2023-05-16T18:18:52;14.00;99.90
19330;DHT22;9799;48.214;16.388;2023-05-16T18:22:13;14.00;99.90
19330;DHT22;9799;48.214;16.388;2023-05-16T18:25:34;14.00;99.90
19330;DHT22;9799;48.214;16.388;2023-05-16T18:28:55;13.90;99.90
19330;DHT22;9799;48.214;16.388;2023-05-16T18:32:17;14.00;99.90
19330;DHT22;9799;48.214;16.388;2023-05-16T18:35:39;14.00;99.90
19330;DHT22;9799;48.214;16.388;2023-05-16T18:39:01;14.00;99.90
19330;DHT22;9799;48.214;16.388;2023-05-16T18:42:22;14.00;99.90
19330;DHT22;9799;48.214;16.388;2023-05-16T18:45:45;13.90;99.90
19330;DHT22;9799;48.214;16.388;2023-05-16T18:49:06;13.90;99.90
19330;DHT22;9799;48.214;16.388;2023-05-16T18:52:28;13.90;99.90
19330;DHT22;9799;48.214;16.388;2023-05-16T18:55:50;13.90;99.90
19330;DHT22;9799;48.214;16.388;2023-05-16T18:59:11;13.80;99.90
19330;DHT22;9799;48.214;16.388;2023-05-16T19:02:33;13.80;99.90
19330;DHT22;9799;48.214;16.388;2023-05-16T19:05:54;13.80;99.90
19330;DHT22;9799;48.214;16.388;2023-05-16T19:09:17;13.80;99.90
19330;DHT22;9799;48.214;16.388;2023-05-16T19:12:38;13.80;99.90
19330;DHT22;9799;48.214;16.388;2023-05-16T19:16:00;13.70;99.90
19330;DHT22;9799;48.214;16.388;2023-05-16T19:19:22;13.80;99.90
19330;DHT22;9799;48.214;16.388;2023-05-16T19:22:44;13.70;99.90
19330;DHT22;9799;48.214;16.388;2023-05-16T19:26:08;13.70;99.90
19330;DHT22;9799;48.214;16.388;2023-05-16T19:29:29;13.70;99.90
19330;DHT22;9799;48.214;16.388;2023-05-16T19:32:51;13.70;99.90
19330;DHT22;9799;48.214;16.388;2023-05-16T19:36:12;13.70;99.90
19330;DHT22;9799;48.214;16.388;2023-05-16T19:39:33;13.70;99.90
19330;DHT22;9799;48.214;16.388;2023-05-16T19:42:56;13.60;99.90
19330;DHT22;9799;48.214;16.388;2023-05-16T19:46:17;13.70;99.90
19330;DHT22;9799;48.214;16.388;2023-05-16T19:49:38;13.70;99.90
19330;DHT22;9799;48.214;16.388;2023-05-16T19:52:59;13.70;99.90
19330;DHT22;9799;48.214;16.388;2023-05-16T19:56:21;13.70;99.90
19330;DHT22;9799;48.214;16.388;2023-05-16T19:59:43;13.80;99.90
19330;DHT22;9799;48.214;16.388;2023-05-16T20:03:04;13.80;99.90
19330;DHT22;9799;48.214;16.388;2023-05-16T20:06:26;13.80;99.90
19330;DHT22;9799;48.214;16.388;2023-05-16T20:09:46;13.80;99.90
19330;DHT22;9799;48.214;16.388;2023-05-16T20:13:08;13.80;99.90
19330;DHT22;9799;48.214;16.388;2023-05-16T20:16:30;13.80;99.90
19330;DHT22;9799;48.214;16.388;2023-05-16T20:19:51;13.70;99.90
19330;DHT22;9799;48.214;16.388;2023-05-16T20:23:13;13.70;99.90
19330;DHT22;9799;48.214;16.388;2023-05-16T20:26:34;13.70;99.90
19330;DHT22;9799;48.214;16.388;2023-05-16T20:29:55;13.70;99.90
19330;DHT22;9799;48.214;16.388;2023-05-16T20:33:18;13.70;99.90
19330;DHT22;9799;48.214;16.388;2023-05-16T20:36:39;13.70;99.90
19330;DHT22;9799;48.214;16.388;2023-05-16T20:40:00;13.70;99.90
19330;DHT22;9799;48.214;16.388;2023-05-16T20:43:21;13.70;99.90
19330;DHT22;9799;48.214;16.388;2023-05-16T20:46:43;13.70;99.90
19330;DHT22;9799;48.214;16.388;2023-05-16T20:50:06;13.70;99.90
19330;DHT22;9799;48.214;16.388;2023-05-16T20:53:28;13.70;99.90
19330;DHT22;9799;48.214;16.388;2023-05-16T20:56:49;13.70;99.90
19330;DHT22;9799;48.214;16.388;2023-05-16T21:00:11;13.70;99.90
19330;DHT22;9799;48.214;16.388;2023-05-16T21:03:32;13.70;99.90
19330;DHT22;9799;48.214;16.388;2023-05-16T21:06:55;13.70;99.90
19330;DHT22;9799;48.214;16.388;2023-05-16T21:10:16;13.70;99.90
19330;DHT22;9799;48.214;16.388;2023-05-16T21:13:37;13.60;99.90
19330;DHT22;9799;48.214;16.388;2023-05-16T21:16:58;13.70;99.90